Yucata Spirit — CFL4056 — position and weather

sailwx.info

Track history (hours):
 
Tides and Currents Weather Stations Pressure Air Temp Water Temp Dewpoint Dewpoint Depression Visibility Wind Speed Wind Dir Waves Ship Positions

Yucata Spirit

Last reported at 2017-Dec-11 17:00 UTC. Time now 2017-Dec-13 22:22 UTC.
Position N 50°06' W 125°19'.

Length 22 m; draft 4 m.

Type: Tug. MMSI: 316001358.

Date/timePositionNaut miles runAvg speedWind from/ knotsBaromVisibWave heightAir tempDewpointWater temp
2017-Dec-11 17:00N 50°06' W 125°19'0 0.0
2017-Dec-11 16:30N 50°06' W 125°19'0 0.0
2017-Dec-11 16:00N 50°06' W 125°19'0 0.0
2017-Dec-11 15:30N 50°06' W 125°19'0 0.0
2017-Dec-11 15:00N 50°06' W 125°19'0 0.0
2017-Dec-11 14:30N 50°06' W 125°19'0 0.0
2017-Dec-11 14:00N 50°06' W 125°19'0 0.0
2017-Dec-11 13:30N 50°06' W 125°19'0 0.0
2017-Dec-11 13:00N 50°06' W 125°19'0 0.0
2017-Dec-11 12:30N 50°06' W 125°19'0 0.0
2017-Dec-11 12:00N 50°06' W 125°19'0 0.0
2017-Dec-11 11:30N 50°05' W 125°19'0 0.0
2017-Dec-11 11:00N 50°06' W 125°19'0 0.0
2017-Dec-11 10:30N 50°05' W 125°19'0 0.0
2017-Dec-11 10:01N 50°06' W 125°19'0 0.0
2017-Dec-11 09:30N 50°05' W 125°19'0 0.0
2017-Dec-11 09:00N 50°06' W 125°19'0 0.0
2017-Dec-11 08:30N 50°06' W 125°19'0 0.0
2017-Dec-11 08:00N 50°06' W 125°19'0 0.0
2017-Dec-11 07:30N 50°05' W 125°19'0 0.0
2017-Dec-11 07:00N 50°05' W 125°19'0 0.0
2017-Dec-11 06:30N 50°06' W 125°19'0 0.0
2017-Dec-11 06:01N 50°06' W 125°19'0 0.0
2017-Dec-11 05:30N 50°05' W 125°19'0 0.0
2017-Dec-11 05:00N 50°06' W 125°19'0 0.0
2017-Dec-11 04:30N 50°05' W 125°19'0 0.0
2017-Dec-11 04:00N 50°06' W 125°19'0 0.0
2017-Dec-11 03:30N 50°05' W 125°19'0 0.0
2017-Dec-11 03:00N 50°05' W 125°19'0 0.0
2017-Dec-11 02:30N 50°05' W 125°19'0 0.0
2017-Dec-11 02:00N 50°06' W 125°19'0 0.0
2017-Dec-11 01:30N 50°05' W 125°19'0 0.0
2017-Dec-11 01:00N 50°06' W 125°19'0 0.0
2017-Dec-11 00:30N 50°06' W 125°19'0 0.0
2017-Dec-11 00:00N 50°06' W 125°19'0 0.0
2017-Dec-10 23:30N 50°06' W 125°19'0 0.0
2017-Dec-10 23:00N 50°06' W 125°19'0 0.0
2017-Dec-10 22:30N 50°06' W 125°19'0 0.0
2017-Dec-10 22:00N 50°06' W 125°19'0 0.0
2017-Dec-10 21:30N 50°05' W 125°19'0 0.0
2017-Dec-10 21:00N 50°06' W 125°19'0 0.0
2017-Dec-10 20:31N 50°05' W 125°19'0 0.0
2017-Dec-10 20:00N 50°05' W 125°19'0 0.0
2017-Dec-10 19:30N 50°05' W 125°19'0 0.0
2017-Dec-10 19:00N 50°06' W 125°19'0 0.0
2017-Dec-10 18:30N 50°05' W 125°19'0 0.0
2017-Dec-10 18:00N 50°05' W 125°19'0 0.0
2017-Dec-10 17:30N 50°06' W 125°19'0 0.0
2017-Dec-10 17:00N 50°06' W 125°19'0 0.0
2017-Dec-10 16:30N 50°06' W 125°19'0 0.0
2017-Dec-10 16:00N 50°06' W 125°19'0 0.0
2017-Dec-10 15:30N 50°06' W 125°19'0 0.1
2017-Dec-10 15:00N 50°06' W 125°19'1 1.4
2017-Dec-10 14:30N 50°05' W 125°18'2 3.0
2017-Dec-10 14:01N 50°04' W 125°16'2 3.1
2017-Dec-10 13:31N 50°03' W 125°15'1 2.8
2017-Dec-10 13:01N 50°02' W 125°14'2 4.3
2017-Dec-10 12:30N 49°60' W 125°13'3 5.5
2017-Dec-10 12:00N 49°58' W 125°10'3 6.4
2017-Dec-10 11:30N 49°56' W 125°06'3 6.3
2017-Dec-10 11:00N 49°54' W 125°02'3 6.1
2017-Dec-10 10:30N 49°52' W 124°58'3 5.7
2017-Dec-10 10:00N 49°50' W 124°55'3 5.9
2017-Dec-10 09:30N 49°48' W 124°51'3 6.2
2017-Dec-10 09:00N 49°47' W 124°47'3 6.2
2017-Dec-10 08:30N 49°45' W 124°44'3 6.1
2017-Dec-10 08:00N 49°43' W 124°40'3 6.2
2017-Dec-10 07:29N 49°41' W 124°36'3 6.5
2017-Dec-10 07:00N 49°39' W 124°32'19 6.3
2017-Dec-10 04:02N 49°29' W 124°08'3 6.3
2017-Dec-10 03:34N 49°28' W 124°04'0 6.2
2017-Dec-10 03:29N 49°28' W 124°03'11 6.6
2017-Dec-10 01:46N 49°25' W 123°46'4 6.0
2017-Dec-10 01:04N 49°24' W 123°40'1 5.8
2017-Dec-10 00:58N 49°23' W 123°39'3 5.6
2017-Dec-10 00:29N 49°22' W 123°35'6 5.7
2017-Dec-09 23:21N 49°24' W 123°26'2 6.1
2017-Dec-09 23:00N 49°26' W 123°27'2 4.5
2017-Dec-09 22:30N 49°28' W 123°28'0 0.4
2017-Dec-09 22:00N 49°28' W 123°28'0 0.0
2017-Dec-09 21:28N 49°28' W 123°28'0 0.0
2017-Dec-09 21:00N 49°28' W 123°28'0 0.0
2017-Dec-09 20:30N 49°28' W 123°28'0 0.1
2017-Dec-09 20:00N 49°28' W 123°28'0 0.0
2017-Dec-09 19:30N 49°28' W 123°28'0 0.0
2017-Dec-09 19:00N 49°28' W 123°28'0 0.0
2017-Dec-09 18:29N 49°28' W 123°28'0 0.0
2017-Dec-09 18:00N 49°28' W 123°28'0 0.0
2017-Dec-09 17:30N 49°28' W 123°28'0 0.0
2017-Dec-09 17:00N 49°28' W 123°28'0 0.0
2017-Dec-09 16:30N 49°28' W 123°28'0 0.0
2017-Dec-09 16:00N 49°28' W 123°28'0 0.0
2017-Dec-09 15:30N 49°28' W 123°28'0 0.1
2017-Dec-09 15:00N 49°28' W 123°28'0 0.3
2017-Dec-09 14:30N 49°28' W 123°28'0 0.3
2017-Dec-09 14:00N 49°28' W 123°28'1 1.9
2017-Dec-09 13:30N 49°27' W 123°27'1 2.7
2017-Dec-09 13:00N 49°25' W 123°28'1 2.4
2017-Dec-09 12:29N 49°25' W 123°26'1 2.2
2017-Dec-09 12:00N 49°24' W 123°25'2 2.5
2017-Dec-09 11:14N 49°23' W 123°27'1 2.7
2017-Dec-09 10:58N 49°23' W 123°28'1 2.9
2017-Dec-09 10:30N 49°22' W 123°30'2 3.3
2017-Dec-09 10:00N 49°22' W 123°33'2 3.6
2017-Dec-09 09:29N 49°22' W 123°36'18 4.3
2017-Dec-09 05:16N 49°27' W 124°03'18 4.8
2017-Dec-09 01:26N 49°36' W 124°27'2 4.6
2017-Dec-09 00:57N 49°37' W 124°30'2 4.8
2017-Dec-09 00:30N 49°39' W 124°33'3 4.9
2017-Dec-08 23:56N 49°41' W 124°36'2 4.6
2017-Dec-08 23:30N 49°42' W 124°38'2 4.9
2017-Dec-08 23:00N 49°44' W 124°41'2 5.0
2017-Dec-08 22:30N 49°46' W 124°43'2 4.7
2017-Dec-08 22:00N 49°47' W 124°46'2 4.7
2017-Dec-08 21:30N 49°48' W 124°49'2 4.8
2017-Dec-08 21:01N 49°49' W 124°53'2 4.9
2017-Dec-08 20:30N 49°50' W 124°56'2 4.8
2017-Dec-08 20:00N 49°52' W 124°58'2 4.6
2017-Dec-08 19:30N 49°54' W 125°01'2 4.5
2017-Dec-08 19:01N 49°55' W 125°04'2 4.5
2017-Dec-08 18:30N 49°56' W 125°07'2 4.3
2017-Dec-08 18:01N 49°58' W 125°09'2 4.5
2017-Dec-08 17:30N 49°59' W 125°12'2 4.4
2017-Dec-08 17:00N 50°01' W 125°13'3 5.8
2017-Dec-08 16:30N 50°04' W 125°15'3 5.4
2017-Dec-08 16:00N 50°06' W 125°18'2 3.1
2017-Dec-08 15:31N 50°07' W 125°19'3 6.3
2017-Dec-08 15:01N 50°10' W 125°21'2 4.2
2017-Dec-08 14:30N 50°12' W 125°22'3 5.4
2017-Dec-08 13:59N 50°14' W 125°23'3 5.7
2017-Dec-08 13:30N 50°17' W 125°24'3 5.8
2017-Dec-08 13:00N 50°20' W 125°25'58 2.8
2017-Dec-07 15:57N 50°40' W 126°52'4 4.4
2017-Dec-07 15:03N 50°42' W 126°57'0 5.0
2017-Dec-07 14:59N 50°42' W 126°57'2 4.6
2017-Dec-07 14:30N 50°43' W 127°00'2 4.0
2017-Dec-07 14:01N 50°44' W 127°03'2 4.5
2017-Dec-07 13:30N 50°45' W 127°06'2 4.6
2017-Dec-07 13:00N 50°46' W 127°09'2 4.7
2017-Dec-07 12:31N 50°48' W 127°12'2 4.8
2017-Dec-07 12:01N 50°49' W 127°15'2 4.9
2017-Dec-07 11:31N 50°51' W 127°18'3 5.1
2017-Dec-07 11:01N 50°53' W 127°21'3 6.0
2017-Dec-07 10:31N 50°55' W 127°24'3 6.1
2017-Dec-07 10:00N 50°57' W 127°28'3 5.3
2017-Dec-07 09:31N 50°58' W 127°31'3 5.2
2017-Dec-07 09:01N 50°59' W 127°35'3 4.9
2017-Dec-07 08:30N 51°02' W 127°37'2 5.0
2017-Dec-07 08:01N 51°03' W 127°40'2 4.0
2017-Dec-07 07:31N 51°04' W 127°43'2 3.8
2017-Dec-07 07:00N 51°06' W 127°45'2 4.5
2017-Dec-07 06:31N 51°07' W 127°47'2 4.4
2017-Dec-07 06:01N 51°09' W 127°50'2 4.0
2017-Dec-07 05:30N 51°11' W 127°50'2 4.2
2017-Dec-07 04:59N 51°13' W 127°50'5 4.5
2017-Dec-07 03:53N 51°16' W 127°45'3 5.1
2017-Dec-07 03:15N 51°17' W 127°40'1 5.0
2017-Dec-07 02:57N 51°18' W 127°38'2 5.0
2017-Dec-07 02:30N 51°19' W 127°34'3 5.3
2017-Dec-07 02:00N 51°19' W 127°30'7 1.7
2017-Dec-06 22:03N 51°20' W 127°20'0 0.3
2017-Dec-06 21:56N 51°20' W 127°20'  
2017-Dec-04 09:10N 51°20' W 127°20'0 0.0
2017-Dec-04 08:52N 51°20' W 127°20'0 0.0
2017-Dec-04 08:20N 51°20' W 127°20'0 0.0
2017-Dec-04 07:52N 51°20' W 127°20'0 0.0
2017-Dec-04 07:13N 51°20' W 127°20'0 0.0
2017-Dec-04 06:54N 51°20' W 127°20'0 0.0
2017-Dec-04 06:12N 51°20' W 127°20'0 0.0
2017-Dec-04 03:47N 51°20' W 127°20'0 0.3
2017-Dec-04 03:28N 51°20' W 127°20'1 2.1
2017-Dec-04 03:00N 51°20' W 127°21'2 4.0
2017-Dec-04 02:30N 51°18' W 127°23'4 4.9
2017-Dec-04 01:39N 51°19' W 127°30'1 5.5
2017-Dec-04 01:29N 51°19' W 127°31'3 5.5
2017-Dec-04 00:57N 51°18' W 127°36'3 5.9
2017-Dec-04 00:30N 51°17' W 127°40'3 5.5
2017-Dec-04 00:00N 51°17' W 127°44'17 0.8
2017-Dec-03 01:18N 51°33' W 127°33'18 2.4
2017-Dec-02 17:32N 51°19' W 127°52'1 6.1
2017-Dec-02 17:27N 51°19' W 127°52'3 5.8
2017-Dec-02 16:57N 51°16' W 127°52'3 5.8
2017-Dec-02 16:30N 51°13' W 127°51'3 5.8
2017-Dec-02 16:00N 51°10' W 127°51'3 5.3
2017-Dec-02 15:30N 51°08' W 127°49'3 5.3
2017-Dec-02 15:00N 51°06' W 127°46'3 5.5
2017-Dec-02 14:30N 51°04' W 127°43'3 6.1
2017-Dec-02 14:00N 51°03' W 127°39'3 6.1
2017-Dec-02 13:30N 51°00' W 127°36'3 6.3
2017-Dec-02 13:00N 50°58' W 127°32'3 6.7
2017-Dec-02 12:30N 50°56' W 127°28'4 7.5
2017-Dec-02 12:00N 50°54' W 127°23'3 7.1
2017-Dec-02 11:30N 50°52' W 127°18'4 7.1
2017-Dec-02 10:59N 50°51' W 127°13'3 7.0
2017-Dec-02 10:29N 50°49' W 127°08'3 6.5
2017-Dec-02 09:59N 50°47' W 127°04'3 6.3
2017-Dec-02 09:26N 50°45' W 126°59'3 6.1
2017-Dec-02 08:54N 50°43' W 126°55'3 5.7
2017-Dec-02 08:24N 50°41' W 126°52'2 5.4
2017-Dec-02 08:00N 50°39' W 126°50'2 4.2
2017-Dec-02 07:25N 50°37' W 126°48'1 2.7
2017-Dec-02 07:00N 50°36' W 126°49'1 1.8
2017-Dec-02 06:28N 50°35' W 126°49'2 3.7
2017-Dec-02 06:00N 50°33' W 126°50'2 3.5
2017-Dec-02 05:30N 50°32' W 126°52'0 0.1
2017-Dec-02 05:00N 50°32' W 126°52'0 0.0
2017-Dec-02 04:03N 50°32' W 126°52'0 0.0
2017-Dec-02 04:00N 50°32' W 126°52'0 0.0
2017-Dec-02 03:26N 50°32' W 126°52'0 0.0
2017-Dec-02 02:46N 50°32' W 126°52'0 0.0
2017-Dec-02 02:22N 50°32' W 126°52'0 0.1
2017-Dec-02 02:00N 50°32' W 126°52'0 0.1
2017-Dec-02 01:21N 50°32' W 126°52'0 0.0
2017-Dec-02 01:00N 50°32' W 126°52'0 0.0
2017-Dec-02 00:14N 50°32' W 126°52'0 0.0
2017-Dec-01 23:56N 50°32' W 126°52'0 0.0
2017-Dec-01 23:27N 50°32' W 126°52'0 0.1
2017-Dec-01 23:01N 50°32' W 126°52'0 0.1
2017-Dec-01 22:30N 50°32' W 126°52'0 0.0
2017-Dec-01 22:00N 50°32' W 126°52'0 0.0
2017-Dec-01 21:27N 50°32' W 126°52'0 0.0
2017-Dec-01 20:58N 50°32' W 126°52'0 0.0
2017-Dec-01 20:29N 50°32' W 126°52'0 0.1
2017-Dec-01 19:57N 50°32' W 126°52'0 0.1
2017-Dec-01 19:30N 50°32' W 126°52'0 0.0
2017-Dec-01 18:59N 50°32' W 126°52'0 0.0
2017-Dec-01 18:29N 50°32' W 126°52'0 0.0
2017-Dec-01 18:00N 50°32' W 126°52'0 0.0
2017-Dec-01 17:30N 50°32' W 126°52'  
Track history (hours):
 
Tides and Currents Weather Stations Pressure Air Temp Water Temp Dewpoint Dewpoint Depression Visibility Wind Speed Wind Dir Waves Ship Positions

Yucata Spirit

Last reported at 2017-Dec-11 17:00 UTC. Time now 2017-Dec-13 22:22 UTC.
Position N 50°06' W 125°19'.

Length 22 m; draft 4 m.

Type: Tug. MMSI: 316001358.

Date/timePositionNaut miles runAvg speedWind from/ knotsBaromVisibWave heightAir tempDewpointWater temp
2017-Dec-11 17:00N 50°06' W 125°19'0 0.0
2017-Dec-11 16:30N 50°06' W 125°19'0 0.0
2017-Dec-11 16:00N 50°06' W 125°19'0 0.0
2017-Dec-11 15:30N 50°06' W 125°19'0 0.0
2017-Dec-11 15:00N 50°06' W 125°19'0 0.0
2017-Dec-11 14:30N 50°06' W 125°19'0 0.0
2017-Dec-11 14:00N 50°06' W 125°19'0 0.0
2017-Dec-11 13:30N 50°06' W 125°19'0 0.0
2017-Dec-11 13:00N 50°06' W 125°19'0 0.0
2017-Dec-11 12:30N 50°06' W 125°19'0 0.0
2017-Dec-11 12:00N 50°06' W 125°19'0 0.0
2017-Dec-11 11:30N 50°05' W 125°19'0 0.0
2017-Dec-11 11:00N 50°06' W 125°19'0 0.0
2017-Dec-11 10:30N 50°05' W 125°19'0 0.0
2017-Dec-11 10:01N 50°06' W 125°19'0 0.0
2017-Dec-11 09:30N 50°05' W 125°19'0 0.0
2017-Dec-11 09:00N 50°06' W 125°19'0 0.0
2017-Dec-11 08:30N 50°06' W 125°19'0 0.0
2017-Dec-11 08:00N 50°06' W 125°19'0 0.0
2017-Dec-11 07:30N 50°05' W 125°19'0 0.0
2017-Dec-11 07:00N 50°05' W 125°19'0 0.0
2017-Dec-11 06:30N 50°06' W 125°19'0 0.0
2017-Dec-11 06:01N 50°06' W 125°19'0 0.0
2017-Dec-11 05:30N 50°05' W 125°19'0 0.0
2017-Dec-11 05:00N 50°06' W 125°19'0 0.0
2017-Dec-11 04:30N 50°05' W 125°19'0 0.0
2017-Dec-11 04:00N 50°06' W 125°19'0 0.0
2017-Dec-11 03:30N 50°05' W 125°19'0 0.0
2017-Dec-11 03:00N 50°05' W 125°19'0 0.0
2017-Dec-11 02:30N 50°05' W 125°19'0 0.0
2017-Dec-11 02:00N 50°06' W 125°19'0 0.0
2017-Dec-11 01:30N 50°05' W 125°19'0 0.0
2017-Dec-11 01:00N 50°06' W 125°19'0 0.0
2017-Dec-11 00:30N 50°06' W 125°19'0 0.0
2017-Dec-11 00:00N 50°06' W 125°19'0 0.0
2017-Dec-10 23:30N 50°06' W 125°19'0 0.0
2017-Dec-10 23:00N 50°06' W 125°19'0 0.0
2017-Dec-10 22:30N 50°06' W 125°19'0 0.0
2017-Dec-10 22:00N 50°06' W 125°19'0 0.0
2017-Dec-10 21:30N 50°05' W 125°19'0 0.0
2017-Dec-10 21:00N 50°06' W 125°19'0 0.0
2017-Dec-10 20:31N 50°05' W 125°19'0 0.0
2017-Dec-10 20:00N 50°05' W 125°19'0 0.0
2017-Dec-10 19:30N 50°05' W 125°19'0 0.0
2017-Dec-10 19:00N 50°06' W 125°19'0 0.0
2017-Dec-10 18:30N 50°05' W 125°19'0 0.0
2017-Dec-10 18:00N 50°05' W 125°19'0 0.0
2017-Dec-10 17:30N 50°06' W 125°19'0 0.0
2017-Dec-10 17:00N 50°06' W 125°19'0 0.0
2017-Dec-10 16:30N 50°06' W 125°19'0 0.0
2017-Dec-10 16:00N 50°06' W 125°19'0 0.0
2017-Dec-10 15:30N 50°06' W 125°19'0 0.1
2017-Dec-10 15:00N 50°06' W 125°19'1 1.4
2017-Dec-10 14:30N 50°05' W 125°18'2 3.0
2017-Dec-10 14:01N 50°04' W 125°16'2 3.1
2017-Dec-10 13:31N 50°03' W 125°15'1 2.8
2017-Dec-10 13:01N 50°02' W 125°14'2 4.3
2017-Dec-10 12:30N 49°60' W 125°13'3 5.5
2017-Dec-10 12:00N 49°58' W 125°10'3 6.4
2017-Dec-10 11:30N 49°56' W 125°06'3 6.3
2017-Dec-10 11:00N 49°54' W 125°02'3 6.1
2017-Dec-10 10:30N 49°52' W 124°58'3 5.7
2017-Dec-10 10:00N 49°50' W 124°55'3 5.9
2017-Dec-10 09:30N 49°48' W 124°51'3 6.2
2017-Dec-10 09:00N 49°47' W 124°47'3 6.2
2017-Dec-10 08:30N 49°45' W 124°44'3 6.1
2017-Dec-10 08:00N 49°43' W 124°40'3 6.2
2017-Dec-10 07:29N 49°41' W 124°36'3 6.5
2017-Dec-10 07:00N 49°39' W 124°32'19 6.3
2017-Dec-10 04:02N 49°29' W 124°08'3 6.3
2017-Dec-10 03:34N 49°28' W 124°04'0 6.2
2017-Dec-10 03:29N 49°28' W 124°03'11 6.6
2017-Dec-10 01:46N 49°25' W 123°46'4 6.0
2017-Dec-10 01:04N 49°24' W 123°40'1 5.8
2017-Dec-10 00:58N 49°23' W 123°39'3 5.6
2017-Dec-10 00:29N 49°22' W 123°35'6 5.7
2017-Dec-09 23:21N 49°24' W 123°26'2 6.1
2017-Dec-09 23:00N 49°26' W 123°27'2 4.5
2017-Dec-09 22:30N 49°28' W 123°28'0 0.4
2017-Dec-09 22:00N 49°28' W 123°28'0 0.0
2017-Dec-09 21:28N 49°28' W 123°28'0 0.0
2017-Dec-09 21:00N 49°28' W 123°28'0 0.0
2017-Dec-09 20:30N 49°28' W 123°28'0 0.1
2017-Dec-09 20:00N 49°28' W 123°28'0 0.0
2017-Dec-09 19:30N 49°28' W 123°28'0 0.0
2017-Dec-09 19:00N 49°28' W 123°28'0 0.0
2017-Dec-09 18:29N 49°28' W 123°28'0 0.0
2017-Dec-09 18:00N 49°28' W 123°28'0 0.0
2017-Dec-09 17:30N 49°28' W 123°28'0 0.0
2017-Dec-09 17:00N 49°28' W 123°28'0 0.0
2017-Dec-09 16:30N 49°28' W 123°28'0 0.0
2017-Dec-09 16:00N 49°28' W 123°28'0 0.0
2017-Dec-09 15:30N 49°28' W 123°28'0 0.1
2017-Dec-09 15:00N 49°28' W 123°28'0 0.3
2017-Dec-09 14:30N 49°28' W 123°28'0 0.3
2017-Dec-09 14:00N 49°28' W 123°28'1 1.9
2017-Dec-09 13:30N 49°27' W 123°27'1 2.7
2017-Dec-09 13:00N 49°25' W 123°28'1 2.4
2017-Dec-09 12:29N 49°25' W 123°26'1 2.2
2017-Dec-09 12:00N 49°24' W 123°25'2 2.5
2017-Dec-09 11:14N 49°23' W 123°27'1 2.7
2017-Dec-09 10:58N 49°23' W 123°28'1 2.9
2017-Dec-09 10:30N 49°22' W 123°30'2 3.3
2017-Dec-09 10:00N 49°22' W 123°33'2 3.6
2017-Dec-09 09:29N 49°22' W 123°36'18 4.3
2017-Dec-09 05:16N 49°27' W 124°03'18 4.8
2017-Dec-09 01:26N 49°36' W 124°27'2 4.6
2017-Dec-09 00:57N 49°37' W 124°30'2 4.8
2017-Dec-09 00:30N 49°39' W 124°33'3 4.9
2017-Dec-08 23:56N 49°41' W 124°36'2 4.6
2017-Dec-08 23:30N 49°42' W 124°38'2 4.9
2017-Dec-08 23:00N 49°44' W 124°41'2 5.0
2017-Dec-08 22:30N 49°46' W 124°43'2 4.7
2017-Dec-08 22:00N 49°47' W 124°46'2 4.7
2017-Dec-08 21:30N 49°48' W 124°49'2 4.8
2017-Dec-08 21:01N 49°49' W 124°53'2 4.9
2017-Dec-08 20:30N 49°50' W 124°56'2 4.8
2017-Dec-08 20:00N 49°52' W 124°58'2 4.6
2017-Dec-08 19:30N 49°54' W 125°01'2 4.5
2017-Dec-08 19:01N 49°55' W 125°04'2 4.5
2017-Dec-08 18:30N 49°56' W 125°07'2 4.3
2017-Dec-08 18:01N 49°58' W 125°09'2 4.5
2017-Dec-08 17:30N 49°59' W 125°12'2 4.4
2017-Dec-08 17:00N 50°01' W 125°13'3 5.8
2017-Dec-08 16:30N 50°04' W 125°15'3 5.4
2017-Dec-08 16:00N 50°06' W 125°18'2 3.1
2017-Dec-08 15:31N 50°07' W 125°19'3 6.3
2017-Dec-08 15:01N 50°10' W 125°21'2 4.2
2017-Dec-08 14:30N 50°12' W 125°22'3 5.4
2017-Dec-08 13:59N 50°14' W 125°23'3 5.7
2017-Dec-08 13:30N 50°17' W 125°24'3 5.8
2017-Dec-08 13:00N 50°20' W 125°25'58 2.8
2017-Dec-07 15:57N 50°40' W 126°52'4 4.4
2017-Dec-07 15:03N 50°42' W 126°57'0 5.0
2017-Dec-07 14:59N 50°42' W 126°57'2 4.6
2017-Dec-07 14:30N 50°43' W 127°00'2 4.0
2017-Dec-07 14:01N 50°44' W 127°03'2 4.5
2017-Dec-07 13:30N 50°45' W 127°06'2 4.6
2017-Dec-07 13:00N 50°46' W 127°09'2 4.7
2017-Dec-07 12:31N 50°48' W 127°12'2 4.8
2017-Dec-07 12:01N 50°49' W 127°15'2 4.9
2017-Dec-07 11:31N 50°51' W 127°18'3 5.1
2017-Dec-07 11:01N 50°53' W 127°21'3 6.0
2017-Dec-07 10:31N 50°55' W 127°24'3 6.1
2017-Dec-07 10:00N 50°57' W 127°28'3 5.3
2017-Dec-07 09:31N 50°58' W 127°31'3 5.2
2017-Dec-07 09:01N 50°59' W 127°35'3 4.9
2017-Dec-07 08:30N 51°02' W 127°37'2 5.0
2017-Dec-07 08:01N 51°03' W 127°40'2 4.0
2017-Dec-07 07:31N 51°04' W 127°43'2 3.8
2017-Dec-07 07:00N 51°06' W 127°45'2 4.5
2017-Dec-07 06:31N 51°07' W 127°47'2 4.4
2017-Dec-07 06:01N 51°09' W 127°50'2 4.0
2017-Dec-07 05:30N 51°11' W 127°50'2 4.2
2017-Dec-07 04:59N 51°13' W 127°50'5 4.5
2017-Dec-07 03:53N 51°16' W 127°45'3 5.1
2017-Dec-07 03:15N 51°17' W 127°40'1 5.0
2017-Dec-07 02:57N 51°18' W 127°38'2 5.0
2017-Dec-07 02:30N 51°19' W 127°34'3 5.3
2017-Dec-07 02:00N 51°19' W 127°30'7 1.7
2017-Dec-06 22:03N 51°20' W 127°20'0 0.3
2017-Dec-06 21:56N 51°20' W 127°20'  
2017-Dec-04 09:10N 51°20' W 127°20'0 0.0
2017-Dec-04 08:52N 51°20' W 127°20'0 0.0
2017-Dec-04 08:20N 51°20' W 127°20'0 0.0
2017-Dec-04 07:52N 51°20' W 127°20'0 0.0
2017-Dec-04 07:13N 51°20' W 127°20'0 0.0
2017-Dec-04 06:54N 51°20' W 127°20'0 0.0
2017-Dec-04 06:12N 51°20' W 127°20'0 0.0
2017-Dec-04 03:47N 51°20' W 127°20'0 0.3
2017-Dec-04 03:28N 51°20' W 127°20'1 2.1
2017-Dec-04 03:00N 51°20' W 127°21'2 4.0
2017-Dec-04 02:30N 51°18' W 127°23'4 4.9
2017-Dec-04 01:39N 51°19' W 127°30'1 5.5
2017-Dec-04 01:29N 51°19' W 127°31'3 5.5
2017-Dec-04 00:57N 51°18' W 127°36'3 5.9
2017-Dec-04 00:30N 51°17' W 127°40'3 5.5
2017-Dec-04 00:00N 51°17' W 127°44'17 0.8
2017-Dec-03 01:18N 51°33' W 127°33'18 2.4
2017-Dec-02 17:32N 51°19' W 127°52'1 6.1
2017-Dec-02 17:27N 51°19' W 127°52'3 5.8
2017-Dec-02 16:57N 51°16' W 127°52'3 5.8
2017-Dec-02 16:30N 51°13' W 127°51'3 5.8
2017-Dec-02 16:00N 51°10' W 127°51'3 5.3
2017-Dec-02 15:30N 51°08' W 127°49'3 5.3
2017-Dec-02 15:00N 51°06' W 127°46'3 5.5
2017-Dec-02 14:30N 51°04' W 127°43'3 6.1
2017-Dec-02 14:00N 51°03' W 127°39'3 6.1
2017-Dec-02 13:30N 51°00' W 127°36'3 6.3
2017-Dec-02 13:00N 50°58' W 127°32'3 6.7
2017-Dec-02 12:30N 50°56' W 127°28'4 7.5
2017-Dec-02 12:00N 50°54' W 127°23'3 7.1
2017-Dec-02 11:30N 50°52' W 127°18'4 7.1
2017-Dec-02 10:59N 50°51' W 127°13'3 7.0
2017-Dec-02 10:29N 50°49' W 127°08'3 6.5
2017-Dec-02 09:59N 50°47' W 127°04'3 6.3
2017-Dec-02 09:26N 50°45' W 126°59'3 6.1
2017-Dec-02 08:54N 50°43' W 126°55'3 5.7
2017-Dec-02 08:24N 50°41' W 126°52'2 5.4
2017-Dec-02 08:00N 50°39' W 126°50'2 4.2
2017-Dec-02 07:25N 50°37' W 126°48'1 2.7
2017-Dec-02 07:00N 50°36' W 126°49'1 1.8
2017-Dec-02 06:28N 50°35' W 126°49'2 3.7
2017-Dec-02 06:00N 50°33' W 126°50'2 3.5
2017-Dec-02 05:30N 50°32' W 126°52'0 0.1
2017-Dec-02 05:00N 50°32' W 126°52'0 0.0
2017-Dec-02 04:03N 50°32' W 126°52'0 0.0
2017-Dec-02 04:00N 50°32' W 126°52'0 0.0
2017-Dec-02 03:26N 50°32' W 126°52'0 0.0
2017-Dec-02 02:46N 50°32' W 126°52'0 0.0
2017-Dec-02 02:22N 50°32' W 126°52'0 0.1
2017-Dec-02 02:00N 50°32' W 126°52'0 0.1
2017-Dec-02 01:21N 50°32' W 126°52'0 0.0
2017-Dec-02 01:00N 50°32' W 126°52'0 0.0
2017-Dec-02 00:14N 50°32' W 126°52'0 0.0
2017-Dec-01 23:56N 50°32' W 126°52'0 0.0
2017-Dec-01 23:27N 50°32' W 126°52'0 0.1
2017-Dec-01 23:01N 50°32' W 126°52'0 0.1
2017-Dec-01 22:30N 50°32' W 126°52'0 0.0
2017-Dec-01 22:00N 50°32' W 126°52'0 0.0
2017-Dec-01 21:27N 50°32' W 126°52'0 0.0
2017-Dec-01 20:58N 50°32' W 126°52'0 0.0
2017-Dec-01 20:29N 50°32' W 126°52'0 0.1
2017-Dec-01 19:57N 50°32' W 126°52'0 0.1
2017-Dec-01 19:30N 50°32' W 126°52'0 0.0
2017-Dec-01 18:59N 50°32' W 126°52'0 0.0
2017-Dec-01 18:29N 50°32' W 126°52'0 0.0
2017-Dec-01 18:00N 50°32' W 126°52'0 0.0
2017-Dec-01 17:30N 50°32' W 126°52'  

Dump ship's entire track history